Weather observations for the past three days for
Port Hope
Metric (Imperial)
Date Time (edt) Wind (kph) Vis. (km) Weather Sky Cond. Temperature (ºC) Relative Humidity Wind Chill (°C) Heat Index (°C) Pressure Precipitation (cm)
Air Dwpt 6 hour altimeter (cm) sea level (mb) 1 hr 3 hr 6 hr
Max. Min.
07 04:55 Calm 0.00 NULL NULL 0.6 -1.7 85% 75.92 1012.9
07 03:55 Calm 0.00 NULL NULL 1.1 -1.7 82% 75.9 1012.8
07 02:55 SE 6 0.00 NULL NULL 1.1 -2.2 79% 75.92 1012.8
07 01:55 E 11 0.00 NULL NULL 4.4 -2.8 5 4.4 60% 2 75.95 1013.2
07 00:55 E 15 0.00 NULL NULL 5 -2.8 57% 2 75.97 1013.5
06 23:55 E 19 0.00 NULL NULL 5 -2.8 57% 2 75.97 1013.4
06 22:55 E 17 0.00 NULL NULL 5 -3.9 53% 2 76 1013.8
06 21:55 E 17 0.00 NULL NULL 5 -3.9 53% 2 76.02 1014.0
06 20:55 E 19 0.00 NULL NULL 5 -3.3 55% 2 75.97 1013.5
06 19:55 E 22 0.00 NULL NULL 5 -3.3 5.6 4.4 55% 1 75.92 1012.9
06 18:55 SE 20 0.00 NULL NULL 5 -3.3 55% 1 75.95 1013.0
06 17:55 E 20 0.00 NULL NULL 5 -2.8 57% 1 75.92 1012.9
06 16:55 E 19 0.00 NULL NULL 5 -2.8 57% 2 75.92 1012.7
06 15:55 E 17 0.00 NULL NULL 4.4 -2.8 60% 1 75.92 1012.9
06 14:55 E 19 0.00 NULL NULL 5 -3.3 55% 2 75.95 1013.2
06 13:55 NE 13 0.00 NULL NULL 5 -3.3 6.1 3.9 55% 2 75.97 1013.4
06 12:55 NE 11 0.00 NULL NULL 5 -2.2 60% 3 75.97 1013.6
06 11:55 Vrbl 7 0.00 NULL NULL 5 0 70% 4 76 1013.7
06 10:55 Vrbl 7 0.00 NULL NULL 4.4 -0.6 70% 3 75.95 1013.1
06 09:55 Calm 0.00 NULL NULL 4.4 -0.6 70% 75.9 1012.6
06 08:55 N 13 0.00 NULL NULL 3.9 -1.1 70% 1 75.87 1012.0
06 07:55 N 15 0.00 NULL NULL 3.9 -1.1 4.4 2.8 70% 1 75.84 1011.7
06 06:55 N 17 G 33 0.00 NULL NULL 3.3 -1.1 73% -0 75.74 1010.6
06 05:55 N 30 0.00 NULL NULL 3.3 -0.6 76% -2 75.69 1009.5
06 04:55 N 30 G 44 0.00 NULL NULL 3.9 -0.6 73% -1 75.69 1009.6
06 03:55 N 31 G 44 0.00 NULL NULL 3.9 0.6 79% -1 75.69 1009.6
06 02:55 N 30 G 44 0.00 NULL NULL 3.9 0.6 79% -1 75.67 1009.4
06 01:55 N 26 0.00 NULL NULL 4.4 1.1 6.1 4.4 79% 0 75.67 1009.1
06 00:55 N 19 0.00 NULL NULL 5.6 1.7 76% 2 75.64 1008.8
05 23:55 NE 20 0.00 NULL NULL 5.6 1.1 73% 2 75.64 1008.6
05 22:55 NE 26 0.00 NULL NULL 5.6 0.6 71% 2 75.59 1008.2
05 21:55 NE 26 0.00 NULL NULL 5.6 1.7 76% 2 75.57 1008.0
05 20:55 E 26 0.00 NULL NULL 5.6 2.8 82% 2 75.51 1007.1
05 19:55 E 24 0.00 NULL NULL 5.6 3.3 10 5.6 85% 2 75.46 1006.6
05 18:55 E 24 0.00 NULL NULL 6.7 3.3 79% 3 75.46 1006.6
05 17:55 E 30 0.00 NULL NULL 8.3 5 80% 5 75.44 1006.2
05 16:55 E 31 0.00 NULL NULL 8.9 4.4 74% 5 75.44 1006.1
05 15:55 E 33 0.00 Breezy NULL 8.3 4.4 77% 4 75.44 1006.2
05 14:55 E 30 0.00 NULL NULL 8.9 3.3 68% 5 75.44 1006.2
05 13:55 E 17 0.00 NULL NULL 10 3.3 13.3 8.3 63% 8 75.44 1005.9
05 12:55 SW 13 0.00 NULL NULL 12.2 1.7 49% 75.41 1005.4
05 11:55 Vrbl 9 0.00 NULL NULL 10.6 0.6 50% 75.44 1005.7
05 10:55 Vrbl 6 0.00 NULL NULL 9.4 2.2 61% 75.41 1005.1
05 09:55 NW 11 0.00 NULL NULL 8.3 1.7 63% 7 75.36 1004.6
05 08:55 NW 9 0.00 NULL NULL 8.9 2.2 63% 8 75.29 1003.5
05 07:55 NW 15 0.00 NULL NULL 8.3 2.2 8.3 6.7 66% 6 75.26 1003.2
05 06:55 NW 11 0.00 NULL NULL 7.8 3.3 73% 6 75.13 1001.4
05 05:55 NW 11 0.00 NULL NULL 7.2 3.9 80% 5 75.06 1000.5
05 04:55 NW 13 0.00 NULL NULL 7.2 4.4 83% 5 75.03 1000.0
05 03:55 NW 9 0.00 NULL NULL 7.2 4.4 83% 6 74.96 998.9
05 02:55 NW 7 0.00 NULL NULL 6.7 5.6 93% 6 74.93 998.6
05 01:55 Vrbl 6 0.00 NULL NULL 7.2 6.1 21.7 7.2 93% 74.9 998.5
05 00:55 NW 15 0.00 NULL NULL 10.6 10 96% 74.83 997.4
04 23:55 N 24 G 39 0.00 NULL NULL 10 6.7 80% 7 74.75 996.4
04 22:55 Vrbl 9 0.00 NULL NULL 20 4.4 36% 74.7 995.3
04 21:55 S 11 0.00 NULL NULL 20.6 3.3 32% 74.73 995.9
04 20:55 SW 11 0.00 NULL NULL 20.6 2.8 31% 74.7 995.6
04 19:55 Vrbl 11 0.00 NULL NULL 21.7 2.2 23.9 21.7 28% 74.68 995.2
04 18:55 SW 17 G 37 0.00 NULL NULL 22.8 1.1 24% 74.75 996.1
04 17:55 SW 17 G 44 0.00 NULL NULL 23.3 0 21% 74.78 996.6
04 16:55 SW 30 G 48 0.00 NULL NULL 23.3 0 21% 74.8 996.8
04 15:55 SW 33 G 59 0.00 Breezy NULL 23.9 0.6 22% 25 74.8 996.7
04 14:55 SW 33 G 61 0.00 Breezy NULL 23.3 1.7 24% 74.83 997.2
04 13:55 SW 24 G 50 0.00 NULL NULL 22.2 2.8 22.2 11.7 28% 74.88 997.9
04 12:55 SW 20 G 50 0.00 NULL NULL 21.7 4.4 32% 74.96 998.8
04 11:55 SW 15 G 33 0.00 NULL NULL 20 7.8 45% 75.01 999.8
04 10:55 SW 13 G 30 0.00 NULL NULL 17.2 7.8 54% 75.06 1000.5
04 09:55 SW 15 G 30 0.00 NULL NULL 15.6 7.2 58% 75.08 1000.9
04 08:55 SW 20 G 33 0.00 NULL NULL 12.8 6.7 67% 75.13 1001.5
04 07:55 SW 13 G 33 0.00 NULL NULL 11.7 5.6 11.7 9.4 66% 75.13 1001.8
04 06:55 SW 15 0.00 NULL NULL 10 5 71% 8 75.13 1001.8
04 05:55 SW 15 G 30 0.00 NULL NULL 10 4.4 68% 8 75.16 1002.0
Date Time (edt) Wind (kph) Vis. (km) Weather Sky Cond. Air Dwpt Max. Min. Relative Humidity Wind Chill (°C) Heat Index (°C) altimeter (cm) sea level (mb) 1 hr 3 hr 6 hr
6 hour
Temperature (ºC) Pressure Precipitation (cm)